createdAt,value
2022-08-21T00:03:05.517Z,18.30
2022-08-21T00:09:22.324Z,18.20
2022-08-21T00:18:57.389Z,18.10
2022-08-21T00:22:22.586Z,18.00
2022-08-21T00:25:19.864Z,18.00
2022-08-21T00:28:30.274Z,18.00
2022-08-21T00:34:36.060Z,18.00
2022-08-21T00:37:24.684Z,17.90
2022-08-21T00:40:17.171Z,17.90
2022-08-21T00:43:07.041Z,17.90
2022-08-21T00:45:54.928Z,17.90
2022-08-21T00:48:42.646Z,17.80
2022-08-21T00:51:56.904Z,17.80
2022-08-21T00:54:46.461Z,17.80
2022-08-21T00:57:58.424Z,17.80
2022-08-21T01:01:10.764Z,17.90
2022-08-21T01:04:28.662Z,17.90
2022-08-21T01:07:56.434Z,17.60
2022-08-21T01:23:22.676Z,17.50
2022-08-21T01:26:11.275Z,17.60
2022-08-21T01:29:08.179Z,17.60
2022-08-21T01:31:55.588Z,17.50
2022-08-21T01:34:45.491Z,17.50
2022-08-21T01:37:33.238Z,17.50
2022-08-21T01:41:15.380Z,17.50
2022-08-21T01:47:31.016Z,17.50
2022-08-21T01:50:35.158Z,17.50
2022-08-21T01:53:33.128Z,17.50
2022-08-21T01:56:46.054Z,17.50
2022-08-21T01:59:40.545Z,17.60
2022-08-21T02:02:45.681Z,17.50
2022-08-21T02:05:50.608Z,17.50
2022-08-21T02:08:46.193Z,17.50
2022-08-21T02:11:49.528Z,17.40
2022-08-21T02:16:07.535Z,17.50
2022-08-21T02:18:54.906Z,17.50
2022-08-21T02:21:42.894Z,17.50
2022-08-21T02:24:54.801Z,17.40
2022-08-21T02:28:05.561Z,17.50
2022-08-21T02:31:18.112Z,17.60
2022-08-21T02:34:29.257Z,17.40
2022-08-21T02:41:59.303Z,17.50
2022-08-21T02:48:36.264Z,17.40
2022-08-21T02:51:27.800Z,17.40
2022-08-21T02:54:21.298Z,17.30
2022-08-21T02:57:29.884Z,17.20
2022-08-21T03:00:23.405Z,17.40
2022-08-21T03:03:52.953Z,17.30
2022-08-21T03:10:43.496Z,18.60
2022-08-21T03:20:49.741Z,18.20
2022-08-21T03:23:49.641Z,17.90
2022-08-21T03:27:31.336Z,18.00
2022-08-21T03:30:53.556Z,17.90
2022-08-21T03:38:09.528Z,18.20
2022-08-21T03:44:41.393Z,18.00
2022-08-21T03:47:28.769Z,18.00
2022-08-21T03:50:18.150Z,18.20
2022-08-21T03:53:16.840Z,18.40
2022-08-21T03:56:06.256Z,18.40
2022-08-21T03:59:05.224Z,18.20
2022-08-21T04:02:12.632Z,18.20
2022-08-21T04:05:17.362Z,17.80
2022-08-21T04:08:06.932Z,18.00
2022-08-21T04:18:32.961Z,18.00
2022-08-21T04:21:57.222Z,17.80
2022-08-21T04:25:29.581Z,18.40
2022-08-21T04:31:41.379Z,17.80
2022-08-21T04:37:41.623Z,18.10
2022-08-21T04:43:42.593Z,18.20
2022-08-21T04:47:11.074Z,18.00
2022-08-21T04:57:48.230Z,18.00
2022-08-21T05:07:51.142Z,17.90
2022-08-21T05:11:09.816Z,17.70
2022-08-21T05:14:01.972Z,17.80
2022-08-21T05:17:25.659Z,17.60
2022-08-21T05:23:54.312Z,17.60
2022-08-21T05:27:27.824Z,17.60
2022-08-21T05:30:18.193Z,17.90
2022-08-21T05:33:28.712Z,17.50
2022-08-21T05:36:45.121Z,17.50
2022-08-21T05:42:55.187Z,17.60
2022-08-21T05:46:25.796Z,17.70
2022-08-21T05:49:26.083Z,18.10
2022-08-21T05:53:04.424Z,18.00
2022-08-21T05:56:47.906Z,18.20
2022-08-21T06:06:38.252Z,18.30
2022-08-21T06:09:39.561Z,18.20
2022-08-21T06:13:00.260Z,18.30
2022-08-21T06:16:02.297Z,18.10
2022-08-21T06:18:50.308Z,18.40
2022-08-21T06:21:37.939Z,18.30
2022-08-21T06:24:25.622Z,18.70
2022-08-21T06:27:13.475Z,18.70
2022-08-21T06:30:01.002Z,19.00
2022-08-21T06:32:48.472Z,19.20
2022-08-21T06:35:37.363Z,19.00
2022-08-21T06:38:29.090Z,19.10
2022-08-21T06:41:16.296Z,19.30
2022-08-21T06:44:04.028Z,19.30
2022-08-21T06:46:51.191Z,19.00
2022-08-21T06:49:39.131Z,19.30
2022-08-21T06:52:26.688Z,19.40
2022-08-21T06:55:13.919Z,19.00
2022-08-21T06:58:16.654Z,19.10
2022-08-21T07:01:04.942Z,19.10
2022-08-21T07:05:40.860Z,19.20
2022-08-21T07:08:33.646Z,19.60
2022-08-21T07:12:01.210Z,19.40
2022-08-21T07:14:59.907Z,19.60
2022-08-21T07:18:05.553Z,19.40
2022-08-21T07:20:58.797Z,19.30
2022-08-21T07:28:00.195Z,19.50
2022-08-21T07:34:12.956Z,20.10
2022-08-21T07:47:57.518Z,20.00
2022-08-21T07:51:44.815Z,20.00
2022-08-21T07:54:43.658Z,20.10
2022-08-21T07:57:39.390Z,20.50
2022-08-21T08:00:55.206Z,20.70
2022-08-21T08:03:59.923Z,20.30
2022-08-21T08:10:57.039Z,20.00
2022-08-21T08:14:31.667Z,20.50
2022-08-21T08:17:30.792Z,20.80
2022-08-21T08:20:24.912Z,20.90
2022-08-21T08:27:13.366Z,20.50
2022-08-21T08:30:14.477Z,20.70
2022-08-21T08:40:00.885Z,21.40
2022-08-21T08:43:04.508Z,21.50
2022-08-21T08:46:17.322Z,21.20
2022-08-21T08:50:02.787Z,21.10
2022-08-21T08:53:11.590Z,21.00
2022-08-21T08:56:02.076Z,21.10
2022-08-21T08:58:53.044Z,21.20
2022-08-21T09:01:40.819Z,21.20
2022-08-21T09:04:29.912Z,20.90
2022-08-21T09:07:51.924Z,21.10
2022-08-21T09:11:02.122Z,21.10
2022-08-21T09:14:06.184Z,21.50
2022-08-21T09:17:05.889Z,21.40
2022-08-21T09:20:12.787Z,21.80
2022-08-21T09:23:10.980Z,22.10
2022-08-21T09:26:01.505Z,22.30
2022-08-21T09:28:55.332Z,21.90
2022-08-21T09:31:42.784Z,21.50
2022-08-21T09:34:32.828Z,21.50
2022-08-21T09:37:20.196Z,21.40
2022-08-21T09:40:32.062Z,22.20
2022-08-21T09:43:23.822Z,22.20
2022-08-21T09:46:37.083Z,22.30
2022-08-21T09:49:33.467Z,22.80
2022-08-21T09:52:25.567Z,23.20
2022-08-21T09:58:33.700Z,23.30
2022-08-21T10:01:24.197Z,22.90
2022-08-21T10:04:12.509Z,23.00
2022-08-21T10:07:13.896Z,23.40
2022-08-21T10:10:09.480Z,23.80
2022-08-21T10:13:14.940Z,23.40
2022-08-21T10:16:30.051Z,23.00
2022-08-21T10:19:37.250Z,22.00
2022-08-21T10:22:31.336Z,21.90
2022-08-21T10:25:31.317Z,22.60
2022-08-21T10:28:32.066Z,23.10
2022-08-21T10:31:47.705Z,23.90
2022-08-21T10:34:35.176Z,24.00
2022-08-21T10:37:38.385Z,23.40
2022-08-21T10:40:42.792Z,23.30
2022-08-21T10:44:05.860Z,23.90
2022-08-21T10:47:25.351Z,24.20
2022-08-21T10:50:30.643Z,24.10
2022-08-21T10:53:48.330Z,23.60
2022-08-21T10:56:41.392Z,24.50
2022-08-21T10:59:43.184Z,23.80
2022-08-21T11:02:39.820Z,23.10
2022-08-21T11:05:39.725Z,23.50
2022-08-21T11:08:39.782Z,23.80
2022-08-21T11:11:37.988Z,24.10
2022-08-21T11:14:55.049Z,24.70
2022-08-21T11:17:53.662Z,24.10
2022-08-21T11:20:51.876Z,23.20
2022-08-21T11:23:51.314Z,23.70
2022-08-21T11:33:08.441Z,23.00
2022-08-21T11:36:10.797Z,23.20
2022-08-21T11:39:38.841Z,23.10
2022-08-21T11:42:51.323Z,23.00
2022-08-21T11:45:53.613Z,23.00
2022-08-21T11:49:06.859Z,23.30
2022-08-21T11:52:03.779Z,23.30
2022-08-21T11:54:59.040Z,23.40
2022-08-21T11:57:54.610Z,23.00
2022-08-21T12:00:48.860Z,23.00
2022-08-21T12:03:42.268Z,23.20
2022-08-21T12:06:41.230Z,23.30
2022-08-21T12:09:37.487Z,23.20
2022-08-21T12:12:38.538Z,23.20
2022-08-21T12:15:38.063Z,23.00
2022-08-21T12:18:31.741Z,23.20
2022-08-21T12:21:22.668Z,23.30
2022-08-21T12:24:18.635Z,23.60
2022-08-21T12:27:18.269Z,23.70
2022-08-21T12:30:19.954Z,23.50
2022-08-21T12:33:39.113Z,23.20
2022-08-21T12:36:43.334Z,23.20
2022-08-21T12:39:34.102Z,24.40
2022-08-21T12:42:35.068Z,23.90
2022-08-21T12:45:32.537Z,24.30
2022-08-21T12:48:29.241Z,24.70
2022-08-21T12:51:23.429Z,24.10
2022-08-21T12:54:10.967Z,23.50
2022-08-21T12:57:01.225Z,23.40
2022-08-21T12:59:56.864Z,23.80
2022-08-21T13:02:51.820Z,24.50
2022-08-21T13:05:40.383Z,24.50
2022-08-21T13:08:28.701Z,24.70
2022-08-21T13:11:32.589Z,23.80
2022-08-21T13:14:33.088Z,24.20
2022-08-21T13:17:23.576Z,24.30
2022-08-21T13:21:07.455Z,24.30
2022-08-21T13:23:54.920Z,23.60
2022-08-21T13:26:43.168Z,23.70
2022-08-21T13:29:35.815Z,24.10
2022-08-21T13:32:28.606Z,24.10
2022-08-21T13:35:21.450Z,23.90
2022-08-21T13:38:17.242Z,23.60
2022-08-21T13:41:34.954Z,23.60
2022-08-21T13:44:40.790Z,23.40
2022-08-21T13:47:28.394Z,23.30
2022-08-21T13:50:31.307Z,23.10
2022-08-21T13:53:28.691Z,22.90
2022-08-21T13:56:46.325Z,23.40
2022-08-21T13:59:36.758Z,23.30
2022-08-21T14:02:25.444Z,23.40
2022-08-21T14:05:30.652Z,23.60
2022-08-21T14:08:36.127Z,23.30
2022-08-21T14:11:24.249Z,23.60
2022-08-21T14:14:21.262Z,23.40
2022-08-21T14:17:25.425Z,23.30
2022-08-21T14:20:34.341Z,23.90
2022-08-21T14:23:26.550Z,23.60
2022-08-21T14:26:22.525Z,23.40
2022-08-21T14:29:11.379Z,23.50
2022-08-21T14:32:00.746Z,23.30
2022-08-21T14:34:48.269Z,23.20
2022-08-21T14:37:47.199Z,23.30
2022-08-21T14:40:37.249Z,23.40
2022-08-21T14:43:26.301Z,23.30
2022-08-21T14:46:22.163Z,23.20
2022-08-21T14:49:09.669Z,23.10
2022-08-21T14:51:59.073Z,22.90
2022-08-21T14:54:46.927Z,22.80
2022-08-21T14:57:46.768Z,22.80
2022-08-21T15:00:35.980Z,22.60
2022-08-21T15:03:23.593Z,22.50
2022-08-21T15:06:11.610Z,22.70
2022-08-21T15:08:59.243Z,22.60
2022-08-21T15:11:46.767Z,22.80
2022-08-21T15:14:39.178Z,22.40
2022-08-21T15:17:35.543Z,22.80
2022-08-21T15:20:22.721Z,22.80
2022-08-21T15:23:14.736Z,23.20
2022-08-21T15:26:09.967Z,23.20
2022-08-21T15:29:33.632Z,23.70
2022-08-21T15:32:23.774Z,23.80
2022-08-21T15:35:11.512Z,23.40
2022-08-21T15:37:59.041Z,23.40
2022-08-21T15:40:51.464Z,22.80
2022-08-21T15:43:46.231Z,22.60
2022-08-21T15:46:33.454Z,22.60
2022-08-21T15:49:20.923Z,22.60
2022-08-21T15:52:08.382Z,22.50
2022-08-21T15:55:06.701Z,22.90
2022-08-21T15:58:15.139Z,23.50
2022-08-21T16:01:02.791Z,23.40
2022-08-21T16:04:25.540Z,23.50
2022-08-21T16:07:22.013Z,23.00
2022-08-21T16:10:22.613Z,22.60
2022-08-21T16:13:33.183Z,22.80
2022-08-21T16:16:40.739Z,23.20
2022-08-21T16:19:29.788Z,23.30
2022-08-21T16:22:17.261Z,23.20
2022-08-21T16:25:12.777Z,22.90
2022-08-21T16:28:02.369Z,22.90
2022-08-21T16:30:51.031Z,23.30
2022-08-21T16:33:44.802Z,23.00
2022-08-21T16:36:34.729Z,22.80
2022-08-21T16:39:22.331Z,22.80
2022-08-21T16:42:15.891Z,23.00
2022-08-21T16:45:16.506Z,23.00
2022-08-21T16:48:09.551Z,22.60
2022-08-21T16:50:58.162Z,22.70
2022-08-21T16:53:46.839Z,22.70
2022-08-21T16:56:37.423Z,22.80
2022-08-21T16:59:27.752Z,22.50
2022-08-21T17:02:25.081Z,22.60
2022-08-21T17:05:13.698Z,22.40
2022-08-21T17:08:01.793Z,22.40
2022-08-21T17:10:50.709Z,22.40
2022-08-21T17:13:39.016Z,22.30
2022-08-21T17:16:27.025Z,22.10
2022-08-21T17:19:15.249Z,22.10
2022-08-21T17:22:03.958Z,22.20
2022-08-21T17:24:51.107Z,22.10
2022-08-21T17:27:43.921Z,21.90
2022-08-21T17:33:38.928Z,21.80
2022-08-21T17:36:31.537Z,21.60
2022-08-21T17:39:26.746Z,21.60
2022-08-21T17:42:14.760Z,21.50
2022-08-21T17:45:03.763Z,21.50
2022-08-21T17:48:05.315Z,21.40
2022-08-21T17:50:52.906Z,21.30
2022-08-21T17:53:40.660Z,21.40
2022-08-21T17:56:32.389Z,21.20
2022-08-21T17:59:26.427Z,21.20
2022-08-21T18:02:20.112Z,21.10
2022-08-21T18:08:10.774Z,20.80
2022-08-21T18:11:10.346Z,20.80
2022-08-21T18:14:07.299Z,20.90
2022-08-21T18:16:56.339Z,20.80
2022-08-21T18:19:49.272Z,20.80
2022-08-21T18:22:44.382Z,20.90
2022-08-21T18:25:32.221Z,20.90
2022-08-21T18:28:25.646Z,20.90
2022-08-21T18:31:14.170Z,21.00
2022-08-21T18:34:11.616Z,20.90
2022-08-21T18:36:59.358Z,20.80
2022-08-21T18:39:46.917Z,20.90
2022-08-21T18:42:39.623Z,20.70
2022-08-21T18:45:36.987Z,20.70
2022-08-21T18:48:29.209Z,20.80
2022-08-21T18:51:37.707Z,20.80
2022-08-21T18:58:26.152Z,20.60
2022-08-21T19:04:59.293Z,20.60
2022-08-21T19:08:08.407Z,20.50
2022-08-21T19:17:44.171Z,20.70
2022-08-21T19:20:36.518Z,20.70
2022-08-21T19:23:28.938Z,20.60
2022-08-21T19:26:17.774Z,20.60
2022-08-21T19:29:17.046Z,20.50
2022-08-21T19:32:06.186Z,20.50
2022-08-21T19:35:31.789Z,20.50
2022-08-21T19:38:26.604Z,20.50
2022-08-21T19:41:16.589Z,20.50
2022-08-21T19:44:07.165Z,20.50
2022-08-21T19:46:57.506Z,20.40
2022-08-21T19:49:49.751Z,20.40
2022-08-21T19:52:37.304Z,20.30
2022-08-21T19:55:36.792Z,20.30
2022-08-21T19:58:39.536Z,20.20
2022-08-21T20:01:32.733Z,20.30
2022-08-21T20:04:20.957Z,20.10
2022-08-21T20:07:17.848Z,20.10
2022-08-21T20:10:14.337Z,20.20
2022-08-21T20:13:22.195Z,20.20
2022-08-21T20:16:12.460Z,20.30
2022-08-21T20:19:03.061Z,20.10
2022-08-21T20:21:50.286Z,20.20
2022-08-21T20:24:37.914Z,20.20
2022-08-21T20:27:27.607Z,20.10
2022-08-21T20:30:16.505Z,20.10
2022-08-21T20:33:10.592Z,20.20
2022-08-21T20:36:01.301Z,20.20
2022-08-21T20:45:21.761Z,20.10
2022-08-21T20:48:13.964Z,19.90
2022-08-21T20:51:33.111Z,20.00
2022-08-21T20:54:27.394Z,20.00
2022-08-21T20:57:52.672Z,20.10
2022-08-21T21:00:46.303Z,20.00
2022-08-21T21:03:43.124Z,19.90
2022-08-21T21:06:38.644Z,20.10
2022-08-21T21:09:40.331Z,20.10
2022-08-21T21:15:58.827Z,20.00
2022-08-21T21:19:23.037Z,19.90
2022-08-21T21:22:37.635Z,20.00
2022-08-21T21:29:38.147Z,20.00
2022-08-21T21:33:01.225Z,19.90
2022-08-21T21:36:43.982Z,19.90
2022-08-21T21:40:24.643Z,19.90
2022-08-21T21:48:21.123Z,19.80
2022-08-21T21:51:43.750Z,19.80
2022-08-21T21:58:44.667Z,19.80
2022-08-21T22:06:12.626Z,19.80
2022-08-21T22:09:54.565Z,19.80
2022-08-21T22:16:09.581Z,19.70
2022-08-21T22:19:19.629Z,19.70
2022-08-21T22:22:25.383Z,19.70
2022-08-21T22:25:32.813Z,19.70
2022-08-21T22:29:08.575Z,19.70
2022-08-21T22:32:45.855Z,19.70
2022-08-21T22:46:50.532Z,19.50
2022-08-21T23:00:18.386Z,19.40
2022-08-21T23:04:17.087Z,19.50
2022-08-21T23:07:49.678Z,19.50
2022-08-21T23:10:44.371Z,19.50
2022-08-21T23:14:11.984Z,19.40
2022-08-21T23:18:16.531Z,19.30
2022-08-21T23:22:20.382Z,19.30
2022-08-21T23:25:58.040Z,19.30
2022-08-21T23:33:51.592Z,19.30
2022-08-21T23:38:02.387Z,19.30
2022-08-21T23:41:12.067Z,19.30
2022-08-21T23:44:51.087Z,19.20
2022-08-21T23:52:21.154Z,19.20
2022-08-21T23:56:13.400Z,19.20
2022-08-21T23:59:50.515Z,19.20
